Hlavní strana
METAR-TAF:

METAR-TAF

Letiště :

Čeljabinsk, Rusko

zeměpisná šířka: 55-10N, zeměpisná délka: 061-24E, výška: 234 m

Aktuální stav počasí

Zpráva byla vytvořena před 36 minutami, v 13:00 UTC
Jihovýchodní vítr 6 kt
Teplota -11°C
Vlhkost vzduchu 92%
Tlak 1028 hPa
Viditelnost: 5000 m
kouřmo, kouř

METAR: USCC 251300Z 13003MPS 5000 BR FU NSC M11/M12 Q1028 R09/150050 NOSIG RMK QFE750

Čas: 18:36 (13:36 UTC)

Předpověď počasí

Zpráva byla vytvořena před 2 hodinami a 36 minutami, v 11:00 UTC
Předpověď platná od 25 v 12 UTC do 26 v 12 UTC
Jihojihovýchodní vítr 6 kt s nárazy do 19 kt
Viditelnost: 6000 m
Polojasno ve výšce 2000 ft
Dočasný
od 25 v 12 UTC do 25 v 21 UTC
Východojihovýchodní vítr 10 kt s nárazy do 23 kt
Dočasný
od 25 v 21 UTC do 26 v 12 UTC
Oblačno až skoro zataženo ve výšce 1600 ft
slabé sněžení

TAF: USCC 251100Z 2512/2612 15003G10MPS 6000 SCT020 TEMPO 2512/2521 12005G12MPS TEMPO 2521/2612 -SN BKN016

Stav a předpovědi počasí z více než 4 000 letišť (zprávy METAR a TAF).

Červené a žluté tečky na mapě představují dostupné meteorologické stanice.

Když kurzor umístíte na tečku, zobrazí se název stanice.

Pak kliknutím zobrazíte stav a předpověď počasí.

Chcete-li změnit mapu, kliknutím na zelené tlačítko se znaménkem +mapu přiblížíte, kliknutím na zelené tlačítko se znaménkem – mapu oddálíte a kliknutím na zelené šipky přejdete na sousední mapy.


METAR-TAF: